Time,TemperatureF,DewpointF,PressureIn,WindDirection,WindDirectionDegrees,WindSpeedMPH,WindSpeedGustMPH,Humidity,HourlyPrecipIn,Conditions,Clouds,dailyrainin,SolarRadiationWatts/m^2,SoftwareType,DateUTC
2013-03-21 00:00:00,15.0,2.2,29.98,SSE,163,6.0,-999.0,56,0.00,,,0.00,0,WeatherHawk,2013-03-21 04:00:00,
2013-03-21 00:05:00,15.0,1.7,29.98,South,169,7.0,-999.0,55,0.00,,,0.00,0,WeatherHawk,2013-03-21 04:05:00,
2013-03-21 00:10:00,14.9,1.7,29.99,West,273,6.0,-999.0,55,0.00,,,0.00,1,WeatherHawk,2013-03-21 04:10:00,
2013-03-21 00:15:00,14.7,1.9,29.99,West,260,6.0,-999.0,56,0.00,,,0.00,0,WeatherHawk,2013-03-21 04:15:00,
2013-03-21 00:20:00,14.8,2.0,29.99,West,261,3.0,-999.0,56,0.00,,,0.00,0,WeatherHawk,2013-03-21 04:20:00,
2013-03-21 00:25:00,14.8,2.7,29.98,WSW,245,3.0,-999.0,58,0.00,,,0.00,0,WeatherHawk,2013-03-21 04:25:00,
2013-03-21 00:30:00,14.6,2.5,29.99,WNW,303,3.0,-999.0,58,0.00,,,0.00,0,WeatherHawk,2013-03-21 04:30:00,
2013-03-21 00:35:00,14.4,2.4,29.99,West,270,4.0,-999.0,58,0.00,,,0.00,0,WeatherHawk,2013-03-21 04:35:00,
2013-03-21 00:40:00,14.4,2.4,29.99,SSW,201,6.0,-999.0,58,0.00,,,0.00,0,WeatherHawk,2013-03-21 04:40:00,
2013-03-21 00:45:00,14.3,1.9,29.99,West,262,3.0,-999.0,57,0.00,,,0.00,0,WeatherHawk,2013-03-21 04:45:00,
2013-03-21 00:50:00,14.3,2.3,29.98,WSW,241,2.0,-999.0,58,0.00,,,0.00,0,WeatherHawk,2013-03-21 04:50:00,
2013-03-21 00:55:00,14.2,2.5,29.98,SSW,197,5.0,-999.0,59,0.00,,,0.00,0,WeatherHawk,2013-03-21 04:55:00,
2013-03-21 01:00:00,14.2,2.5,29.98,SW,219,6.0,-999.0,59,0.00,,,0.00,0,WeatherHawk,2013-03-21 05:00:00,
2013-03-21 01:05:00,14.1,2.8,29.98,SSW,197,4.0,-999.0,60,0.00,,,0.00,0,WeatherHawk,2013-03-21 05:05:00,
2013-03-21 01:10:00,13.7,2.5,29.98,SSE,152,0.0,-999.0,60,0.00,,,0.00,0,WeatherHawk,2013-03-21 05:10:00,
2013-03-21 01:15:00,13.8,2.9,29.97,SSE,159,2.0,-999.0,61,0.00,,,0.00,0,WeatherHawk,2013-03-21 05:15:00,
2013-03-21 01:20:00,13.9,3.3,29.97,West,263,4.0,-999.0,62,0.00,,,0.00,0,WeatherHawk,2013-03-21 05:20:00,
2013-03-21 01:25:00,13.8,3.2,29.96,WSW,252,4.0,-999.0,62,0.00,,,0.00,0,WeatherHawk,2013-03-21 05:25:00,
2013-03-21 01:30:00,13.7,3.5,29.97,South,182,4.0,-999.0,63,0.00,,,0.00,0,WeatherHawk,2013-03-21 05:30:00,
2013-03-21 01:35:00,13.9,3.7,29.97,WSW,252,5.0,-999.0,63,0.00,,,0.00,0,WeatherHawk,2013-03-21 05:35:00,
2013-03-21 01:40:00,13.9,3.7,29.97,SW,219,3.0,-999.0,63,0.00,,,0.00,0,WeatherHawk,2013-03-21 05:40:00,
2013-03-21 01:45:00,14.2,4.3,29.97,South,179,4.0,-999.0,64,0.00,,,0.00,0,WeatherHawk,2013-03-21 05:45:00,
2013-03-21 01:50:00,13.8,3.9,29.97,SSW,210,8.0,-999.0,64,0.00,,,0.00,0,WeatherHawk,2013-03-21 05:50:00,
2013-03-21 01:55:00,13.9,4.0,29.97,SW,220,9.0,-999.0,64,0.00,,,0.00,0,WeatherHawk,2013-03-21 05:55:00,
2013-03-21 02:00:00,14.0,3.8,29.96,SW,216,4.0,-999.0,63,0.00,,,0.00,0,WeatherHawk,2013-03-21 06:00:00,
2013-03-21 02:05:00,14.0,3.8,29.96,SSE,163,0.0,-999.0,63,0.00,,,0.00,0,WeatherHawk,2013-03-21 06:05:00,
2013-03-21 02:10:00,14.1,3.9,29.97,WSW,242,6.0,-999.0,63,0.00,,,0.00,0,WeatherHawk,2013-03-21 06:10:00,
2013-03-21 02:15:00,14.2,4.0,29.96,SSW,204,6.0,-999.0,63,0.00,,,0.00,0,WeatherHawk,2013-03-21 06:15:00,
2013-03-21 02:20:00,14.7,4.4,29.96,WSW,258,4.0,-999.0,63,0.00,,,0.00,0,WeatherHawk,2013-03-21 06:20:00,
2013-03-21 02:25:00,14.2,3.6,29.95,SSW,206,2.0,-999.0,62,0.00,,,0.00,0,WeatherHawk,2013-03-21 06:25:00,
2013-03-21 02:30:00,14.3,4.1,29.96,South,183,6.0,-999.0,63,0.00,,,0.00,0,WeatherHawk,2013-03-21 06:30:00,
2013-03-21 02:35:00,14.3,4.0,29.96,WNW,285,2.0,-999.0,63,0.00,,,0.00,0,WeatherHawk,2013-03-21 06:35:00,
2013-03-21 02:40:00,14.4,4.1,29.96,WSW,243,2.0,-999.0,63,0.00,,,0.00,0,WeatherHawk,2013-03-21 06:40:00,
2013-03-21 02:45:00,14.6,4.0,29.96,South,178,3.0,-999.0,62,0.00,,,0.00,0,WeatherHawk,2013-03-21 06:45:00,
2013-03-21 02:55:00,14.7,4.1,29.95,WSW,252,7.0,-999.0,62,0.00,,,0.00,0,WeatherHawk,2013-03-21 06:55:00,
2013-03-21 03:13:00,14.9,3.6,29.95,South,185,7.0,-999.0,60,0.00,,,0.00,0,WeatherHawk,2013-03-21 07:13:00,
2013-03-21 03:20:00,15.1,4.1,29.95,West,270,4.0,-999.0,61,0.00,,,0.00,0,WeatherHawk,2013-03-21 07:20:00,
2013-03-21 03:25:00,15.1,3.8,29.95,South,172,5.0,-999.0,60,0.00,,,0.00,0,WeatherHawk,2013-03-21 07:25:00,
2013-03-21 03:35:00,15.6,4.2,29.94,SW,229,5.0,-999.0,60,0.00,,,0.00,0,WeatherHawk,2013-03-21 07:35:00,
2013-03-21 03:40:00,15.5,4.1,29.94,WSW,257,4.0,-999.0,60,0.00,,,0.00,0,WeatherHawk,2013-03-21 07:40:00,
2013-03-21 03:45:00,15.7,4.7,29.93,SW,221,5.0,-999.0,61,0.00,,,0.00,0,WeatherHawk,2013-03-21 07:45:00,
2013-03-21 03:50:00,15.5,4.5,29.93,South,169,5.0,-999.0,61,0.00,,,0.00,0,WeatherHawk,2013-03-21 07:50:00,
2013-03-21 04:00:00,15.8,5.1,29.93,SSW,194,3.0,-999.0,62,0.00,,,0.00,0,WeatherHawk,2013-03-21 08:00:00,
2013-03-21 04:05:00,15.8,5.5,29.94,ESE,122,4.0,-999.0,63,0.00,,,0.00,0,WeatherHawk,2013-03-21 08:05:00,
2013-03-21 04:15:00,15.9,5.6,29.94,SW,228,8.0,-999.0,63,0.00,,,0.00,0,WeatherHawk,2013-03-21 08:15:00,
2013-03-21 04:20:00,16.0,5.7,29.93,SE,138,3.0,-999.0,63,0.00,,,0.00,0,WeatherHawk,2013-03-21 08:20:00,
2013-03-21 04:25:00,16.1,6.1,29.93,South,189,4.0,-999.0,64,0.00,,,0.00,0,WeatherHawk,2013-03-21 08:25:00,
2013-03-21 04:30:00,16.2,6.2,29.92,WSW,251,4.0,-999.0,64,0.00,,,0.00,0,WeatherHawk,2013-03-21 08:30:00,
2013-03-21 04:40:00,16.4,6.7,29.92,East,100,4.0,-999.0,65,0.00,,,0.00,0,WeatherHawk,2013-03-21 08:40:00,
2013-03-21 04:45:00,16.2,6.6,29.92,SSW,208,4.0,-999.0,65,0.00,,,0.00,0,WeatherHawk,2013-03-21 08:45:00,
2013-03-21 04:50:00,16.4,7.1,29.92,SE,128,5.0,-999.0,66,0.00,,,0.00,0,WeatherHawk,2013-03-21 08:50:00,
2013-03-21 04:55:00,16.3,7.0,29.92,WSW,248,1.0,-999.0,66,0.00,,,0.00,0,WeatherHawk,2013-03-21 08:55:00,
2013-03-21 05:00:00,16.3,7.3,29.92,SSW,202,3.0,-999.0,67,0.00,,,0.00,0,WeatherHawk,2013-03-21 09:00:00,
2013-03-21 05:10:00,16.4,7.7,29.92,ESE,107,8.0,-999.0,68,0.00,,,0.00,0,WeatherHawk,2013-03-21 09:10:00,
2013-03-21 05:15:00,16.3,7.6,29.92,SSW,213,6.0,-999.0,68,0.00,,,0.00,0,WeatherHawk,2013-03-21 09:15:00,
2013-03-21 05:20:00,16.2,7.9,29.92,SW,227,5.0,-999.0,69,0.00,,,0.00,0,WeatherHawk,2013-03-21 09:20:00,
2013-03-21 05:30:00,16.2,7.8,29.92,ESE,113,7.0,-999.0,69,0.00,,,0.00,1,WeatherHawk,2013-03-21 09:30:00,
2013-03-21 05:35:00,16.2,7.8,29.92,ESE,105,6.0,-999.0,69,0.00,,,0.00,0,WeatherHawk,2013-03-21 09:35:00,
2013-03-21 05:40:00,16.5,8.2,29.91,WSW,244,8.0,-999.0,69,0.00,,,0.00,0,WeatherHawk,2013-03-21 09:40:00,
2013-03-21 05:45:00,16.5,8.2,29.91,SSE,167,7.0,-999.0,69,0.00,,,0.00,0,WeatherHawk,2013-03-21 09:45:00,
2013-03-21 05:50:00,16.4,8.1,29.92,ESE,118,9.0,-999.0,69,0.00,,,0.00,0,WeatherHawk,2013-03-21 09:50:00,
2013-03-21 05:55:00,16.4,8.0,29.91,SSW,200,10.0,-999.0,69,0.00,,,0.00,1,WeatherHawk,2013-03-21 09:55:00,
2013-03-21 06:00:00,16.4,8.4,29.91,SSW,197,8.0,-999.0,70,0.00,,,0.00,0,WeatherHawk,2013-03-21 10:00:00,
2013-03-21 06:10:00,16.5,8.4,29.91,South,181,6.0,-999.0,70,0.00,,,0.00,0,WeatherHawk,2013-03-21 10:10:00,
2013-03-21 06:15:00,16.6,8.5,29.91,ESE,105,8.0,-999.0,70,0.00,,,0.00,0,WeatherHawk,2013-03-21 10:15:00,
2013-03-21 06:20:00,16.8,8.7,29.91,SE,134,7.0,-999.0,70,0.00,,,0.00,0,WeatherHawk,2013-03-21 10:20:00,
2013-03-21 06:25:00,16.8,8.8,29.92,SE,126,8.0,-999.0,70,0.00,,,0.00,0,WeatherHawk,2013-03-21 10:25:00,
2013-03-21 06:30:00,17.0,8.6,29.91,South,187,4.0,-999.0,69,0.00,,,0.00,0,WeatherHawk,2013-03-21 10:30:00,
2013-03-21 06:40:00,17.2,8.4,29.91,South,190,10.0,-999.0,68,0.00,,,0.00,0,WeatherHawk,2013-03-21 10:40:00,
2013-03-21 06:45:00,17.1,8.0,29.92,WSW,256,4.0,-999.0,67,0.00,,,0.00,0,WeatherHawk,2013-03-21 10:45:00,
2013-03-21 06:50:00,17.3,8.2,29.92,ESE,109,6.0,-999.0,67,0.00,,,0.00,0,WeatherHawk,2013-03-21 10:50:00,
2013-03-21 06:55:00,17.2,8.4,29.92,SW,228,6.0,-999.0,68,0.00,,,0.00,0,WeatherHawk,2013-03-21 10:55:00,
2013-03-21 07:00:00,17.3,8.2,29.92,SSW,200,5.0,-999.0,67,0.00,,,0.00,0,WeatherHawk,2013-03-21 11:00:00,
2013-03-21 07:05:00,17.3,8.2,29.91,South,180,4.0,-999.0,67,0.00,,,0.00,0,WeatherHawk,2013-03-21 11:05:00,
2013-03-21 07:10:00,17.5,8.4,29.91,ESE,113,6.0,-999.0,67,0.00,,,0.00,0,WeatherHawk,2013-03-21 11:10:00,
2013-03-21 07:15:00,17.6,8.5,29.91,SSW,203,6.0,-999.0,67,0.00,,,0.00,0,WeatherHawk,2013-03-21 11:15:00,
2013-03-21 07:20:00,17.5,8.1,29.91,SW,233,6.0,-999.0,66,0.00,,,0.00,0,WeatherHawk,2013-03-21 11:20:00,
2013-03-21 07:30:00,17.8,8.4,29.91,East,99,7.0,-999.0,66,0.00,,,0.00,0,WeatherHawk,2013-03-21 11:30:00,
2013-03-21 07:40:00,17.7,8.3,29.91,NW,304,4.0,-999.0,66,0.00,,,0.00,3,WeatherHawk,2013-03-21 11:40:00,
2013-03-21 07:45:00,18.3,8.9,29.91,East,96,5.0,-999.0,66,0.00,,,0.00,5,WeatherHawk,2013-03-21 11:45:00,
2013-03-21 07:50:00,17.9,8.5,29.91,SSW,202,4.0,-999.0,66,0.00,,,0.00,6,WeatherHawk,2013-03-21 11:50:00,
2013-03-21 07:55:00,18.6,9.1,29.91,SW,219,4.0,-999.0,66,0.00,,,0.00,11,WeatherHawk,2013-03-21 11:55:00,
2013-03-21 08:00:00,18.7,9.3,29.91,NE,36,3.0,-999.0,66,0.00,,,0.00,16,WeatherHawk,2013-03-21 12:00:00,
2013-03-21 08:05:00,18.5,9.1,29.91,SSW,200,5.0,-999.0,66,0.00,,,0.00,19,WeatherHawk,2013-03-21 12:05:00,
2013-03-21 08:10:00,18.3,9.2,29.92,South,186,7.0,-999.0,67,0.00,,,0.00,26,WeatherHawk,2013-03-21 12:10:00,
2013-03-21 08:15:00,18.4,9.3,29.91,SW,220,6.0,-999.0,67,0.00,,,0.00,32,WeatherHawk,2013-03-21 12:15:00,
2013-03-21 08:25:00,18.6,10.2,29.91,SW,226,5.0,-999.0,69,0.00,,,0.00,48,WeatherHawk,2013-03-21 12:25:00,
2013-03-21 08:30:00,19.1,10.6,29.91,South,176,3.0,-999.0,69,0.00,,,0.00,52,WeatherHawk,2013-03-21 12:30:00,
2013-03-21 08:35:00,19.0,10.2,29.91,WNW,297,1.0,-999.0,68,0.00,,,0.00,59,WeatherHawk,2013-03-21 12:35:00,
2013-03-21 08:40:00,19.0,10.2,29.91,SW,221,2.0,-999.0,68,0.00,,,0.00,58,WeatherHawk,2013-03-21 12:40:00,
2013-03-21 08:45:00,19.3,10.2,29.91,WSW,252,4.0,-999.0,67,0.00,,,0.00,77,WeatherHawk,2013-03-21 12:45:00,
2013-03-21 08:50:00,19.3,9.8,29.91,SSW,213,1.0,-999.0,66,0.00,,,0.00,89,WeatherHawk,2013-03-21 12:50:00,
2013-03-21 09:00:00,19.9,9.7,29.91,West,265,6.0,-999.0,64,0.00,,,0.00,98,WeatherHawk,2013-03-21 13:00:00,
2013-03-21 09:05:00,19.6,8.4,29.92,SSE,167,5.0,-999.0,61,0.00,,,0.00,101,WeatherHawk,2013-03-21 13:05:00,
2013-03-21 09:10:00,20.0,8.7,29.91,WNW,290,1.0,-999.0,61,0.00,,,0.00,99,WeatherHawk,2013-03-21 13:10:00,
2013-03-21 09:15:00,20.2,8.5,29.92,WSW,256,4.0,-999.0,60,0.00,,,0.00,132,WeatherHawk,2013-03-21 13:15:00,
2013-03-21 09:25:00,20.0,7.6,29.91,West,267,7.0,-999.0,58,0.00,,,0.00,86,WeatherHawk,2013-03-21 13:25:00,
2013-03-21 09:30:00,20.2,7.9,29.92,SW,224,7.0,-999.0,58,0.00,,,0.00,103,WeatherHawk,2013-03-21 13:30:00,
2013-03-21 09:40:00,20.9,8.1,29.91,West,273,2.0,-999.0,57,0.00,,,0.00,115,WeatherHawk,2013-03-21 13:40:00,
2013-03-21 09:45:00,20.7,7.1,29.91,SE,143,7.0,-999.0,55,0.00,,,0.00,132,WeatherHawk,2013-03-21 13:45:00,
2013-03-21 09:55:00,21.4,7.3,29.92,SW,217,6.0,-999.0,54,0.00,,,0.00,138,WeatherHawk,2013-03-21 13:55:00,
2013-03-21 10:00:00,22.0,7.9,29.91,NW,317,2.0,-999.0,54,0.00,,,0.00,163,WeatherHawk,2013-03-21 14:00:00,
2013-03-21 10:05:00,21.5,6.7,29.92,West,273,6.0,-999.0,52,0.00,,,0.00,184,WeatherHawk,2013-03-21 14:05:00,
2013-03-21 10:10:00,22.3,6.9,29.92,NW,311,3.0,-999.0,51,0.00,,,0.00,188,WeatherHawk,2013-03-21 14:10:00,
2013-03-21 10:15:00,22.0,6.2,29.92,West,267,6.0,-999.0,50,0.00,,,0.00,171,WeatherHawk,2013-03-21 14:15:00,
2013-03-21 10:20:00,21.8,6.1,29.91,WSW,242,12.0,-999.0,50,0.00,,,0.00,153,WeatherHawk,2013-03-21 14:20:00,
2013-03-21 10:25:00,22.2,6.4,29.92,West,278,7.0,-999.0,50,0.00,,,0.00,166,WeatherHawk,2013-03-21 14:25:00,
2013-03-21 10:30:00,22.1,5.9,29.91,WSW,238,10.0,-999.0,49,0.00,,,0.00,162,WeatherHawk,2013-03-21 14:30:00,
2013-03-21 10:40:00,23.1,7.7,29.92,South,173,4.0,-999.0,51,0.00,,,0.00,185,WeatherHawk,2013-03-21 14:40:00,
2013-03-21 10:49:00,22.9,6.7,29.92,SSW,196,7.0,-999.0,49,0.00,,,0.00,231,WeatherHawk,2013-03-21 14:49:00,
2013-03-21 10:55:00,23.9,7.6,29.92,WSW,257,3.0,-999.0,49,0.00,,,0.00,201,WeatherHawk,2013-03-21 14:55:00,
2013-03-21 11:05:00,24.0,7.6,29.92,SW,219,4.0,-999.0,49,0.00,,,0.00,206,WeatherHawk,2013-03-21 15:05:00,
2013-03-21 11:10:00,23.9,6.6,29.92,WNW,291,3.0,-999.0,47,0.00,,,0.00,229,WeatherHawk,2013-03-21 15:10:00,
2013-03-21 11:15:00,23.7,7.4,29.92,SSW,198,6.0,-999.0,49,0.00,,,0.00,245,WeatherHawk,2013-03-21 15:15:00,
2013-03-21 11:20:00,23.5,5.8,29.92,SW,224,13.0,-999.0,46,0.00,,,0.00,266,WeatherHawk,2013-03-21 15:20:00,
2013-03-21 11:30:00,24.6,5.9,29.92,NW,308,8.0,-999.0,44,0.00,,,0.00,258,WeatherHawk,2013-03-21 15:30:00,
2013-03-21 11:35:00,24.9,6.6,29.92,NW,319,5.0,-999.0,45,0.00,,,0.00,313,WeatherHawk,2013-03-21 15:35:00,
2013-03-21 11:45:00,25.0,5.7,29.92,WSW,247,7.0,-999.0,43,0.00,,,0.00,209,WeatherHawk,2013-03-21 15:45:00,
2013-03-21 11:50:00,25.4,6.5,29.92,WNW,297,6.0,-999.0,44,0.00,,,0.00,268,WeatherHawk,2013-03-21 15:50:00,
2013-03-21 11:55:00,25.7,7.4,29.92,NW,315,4.0,-999.0,45,0.00,,,0.00,244,WeatherHawk,2013-03-21 15:55:00,
2013-03-21 12:00:00,25.3,5.4,29.92,SW,217,12.0,-999.0,42,0.00,,,0.00,272,WeatherHawk,2013-03-21 16:00:00,
2013-03-21 12:10:00,26.0,5.1,29.92,SW,216,6.0,-999.0,40,0.00,,,0.00,331,WeatherHawk,2013-03-21 16:10:00,
2013-03-21 12:15:00,26.1,4.6,29.92,SW,217,5.0,-999.0,39,0.00,,,0.00,272,WeatherHawk,2013-03-21 16:15:00,
2013-03-21 12:25:00,27.5,6.9,29.91,NE,34,2.0,-999.0,41,0.00,,,0.00,286,WeatherHawk,2013-03-21 16:25:00,
2013-03-21 12:35:00,25.8,2.6,29.91,NW,315,12.0,-999.0,36,0.00,,,0.00,291,WeatherHawk,2013-03-21 16:35:00,
2013-03-21 12:40:00,25.8,3.2,29.91,SSW,200,10.0,-999.0,37,0.00,,,0.00,295,WeatherHawk,2013-03-21 16:40:00,
2013-03-21 12:45:00,26.1,2.3,29.91,WNW,290,8.0,-999.0,35,0.00,,,0.00,218,WeatherHawk,2013-03-21 16:45:00,
2013-03-21 12:50:00,26.6,5.0,29.91,West,259,5.0,-999.0,39,0.00,,,0.00,185,WeatherHawk,2013-03-21 16:50:00,
2013-03-21 12:55:00,25.9,3.2,29.91,WSW,245,13.0,-999.0,37,0.00,,,0.00,220,WeatherHawk,2013-03-21 16:55:00,
2013-03-21 13:05:00,26.9,3.6,29.91,WNW,294,6.0,-999.0,36,0.00,,,0.00,251,WeatherHawk,2013-03-21 17:05:00,
2013-03-21 13:10:00,26.8,2.9,29.91,SW,218,8.0,-999.0,35,0.00,,,0.00,291,WeatherHawk,2013-03-21 17:10:00,
2013-03-21 13:20:00,26.9,0.3,29.92,NW,316,10.0,-999.0,31,0.00,,,0.00,255,WeatherHawk,2013-03-21 17:20:00,
2013-03-21 13:30:00,27.4,1.5,29.91,WSW,244,8.0,-999.0,32,0.00,,,0.00,219,WeatherHawk,2013-03-21 17:30:00,
2013-03-21 13:35:00,27.5,0.9,29.91,SSW,200,4.0,-999.0,31,0.00,,,0.00,172,WeatherHawk,2013-03-21 17:35:00,
2013-03-21 13:40:00,27.3,0.0,29.91,WSW,241,11.0,-999.0,30,0.00,,,0.00,208,WeatherHawk,2013-03-21 17:40:00,
2013-03-21 13:45:00,27.5,-0.5,29.91,WNW,284,10.0,-999.0,29,0.00,,,0.00,235,WeatherHawk,2013-03-21 17:45:00,
2013-03-21 13:50:00,28.6,1.8,29.92,WNW,287,3.0,-999.0,31,0.00,,,0.00,363,WeatherHawk,2013-03-21 17:50:00,
2013-03-21 13:55:00,28.2,-0.7,29.91,West,269,10.0,-999.0,28,0.00,,,0.00,309,WeatherHawk,2013-03-21 17:55:00,
2013-03-21 14:05:00,28.4,0.2,29.91,West,267,2.0,-999.0,29,0.00,,,0.00,206,WeatherHawk,2013-03-21 18:05:00,
2013-03-21 14:10:00,27.8,-1.8,29.92,NE,40,7.0,-999.0,27,0.00,,,0.00,157,WeatherHawk,2013-03-21 18:10:00,
2013-03-21 14:15:00,27.7,-1.1,29.91,SSW,199,11.0,-999.0,28,0.00,,,0.00,121,WeatherHawk,2013-03-21 18:15:00,
2013-03-21 14:25:00,27.7,0.3,29.91,West,271,9.0,-999.0,30,0.00,,,0.00,119,WeatherHawk,2013-03-21 18:25:00,
2013-03-21 14:35:00,27.6,-0.4,29.91,SW,214,9.0,-999.0,29,0.00,,,0.00,98,WeatherHawk,2013-03-21 18:35:00,
2013-03-21 14:40:00,27.6,2.3,29.92,SW,223,7.0,-999.0,33,0.00,,,0.00,106,WeatherHawk,2013-03-21 18:40:00,
2013-03-21 14:45:00,27.8,3.1,29.92,NE,39,6.0,-999.0,34,0.00,,,0.00,129,WeatherHawk,2013-03-21 18:45:00,
2013-03-21 14:50:00,27.8,3.2,29.91,WNW,301,4.0,-999.0,34,0.00,,,0.00,92,WeatherHawk,2013-03-21 18:50:00,
2013-03-21 14:55:00,28.0,2.6,29.91,SSW,202,4.0,-999.0,33,0.00,,,0.00,97,WeatherHawk,2013-03-21 18:55:00,
2013-03-21 15:00:00,28.0,3.9,29.91,WNW,286,4.0,-999.0,35,0.00,,,0.00,109,WeatherHawk,2013-03-21 19:00:00,
2013-03-21 15:10:00,28.2,2.2,29.91,WNW,297,3.0,-999.0,32,0.00,,,0.00,114,WeatherHawk,2013-03-21 19:10:00,
2013-03-21 15:20:00,28.0,4.0,29.91,WSW,239,5.0,-999.0,35,0.00,,,0.00,172,WeatherHawk,2013-03-21 19:20:00,
2013-03-21 15:25:00,28.4,3.0,29.91,SSE,148,6.0,-999.0,33,0.00,,,0.00,189,WeatherHawk,2013-03-21 19:25:00,
2013-03-21 15:35:00,27.6,4.8,29.92,WNW,303,7.0,-999.0,37,0.00,,,0.00,225,WeatherHawk,2013-03-21 19:35:00,
2013-03-21 15:45:00,27.7,6.0,29.92,WSW,258,12.0,-999.0,39,0.00,,,0.00,281,WeatherHawk,2013-03-21 19:45:00,
2013-03-21 15:50:00,27.9,7.8,29.91,WNW,282,4.0,-999.0,42,0.00,,,0.00,241,WeatherHawk,2013-03-21 19:50:00,
2013-03-21 15:55:00,28.0,7.9,29.92,North,1,5.0,-999.0,42,0.00,,,0.00,213,WeatherHawk,2013-03-21 19:55:00,
2013-03-21 16:05:00,27.9,9.4,29.91,SW,215,7.0,-999.0,45,0.00,,,0.00,375,WeatherHawk,2013-03-21 20:05:00,
2013-03-21 16:15:00,28.2,8.1,29.91,West,267,5.0,-999.0,42,0.00,,,0.00,330,WeatherHawk,2013-03-21 20:15:00,
2013-03-21 16:20:00,29.2,10.5,29.91,West,259,4.0,-999.0,45,0.00,,,0.00,390,WeatherHawk,2013-03-21 20:20:00,
2013-03-21 16:25:00,28.0,7.9,29.91,WSW,244,8.0,-999.0,42,0.00,,,0.00,161,WeatherHawk,2013-03-21 20:25:00,
2013-03-21 16:35:00,27.9,9.8,29.91,SSW,195,11.0,-999.0,46,0.00,,,0.00,197,WeatherHawk,2013-03-21 20:35:00,
2013-03-21 16:40:00,27.8,10.7,29.92,WSW,253,7.0,-999.0,48,0.00,,,0.00,221,WeatherHawk,2013-03-21 20:40:00,
2013-03-21 16:45:00,28.2,10.6,29.91,WNW,296,6.0,-999.0,47,0.00,,,0.00,267,WeatherHawk,2013-03-21 20:45:00,
2013-03-21 16:50:00,28.8,10.2,29.91,NE,44,3.0,-999.0,45,0.00,,,0.00,165,WeatherHawk,2013-03-21 20:50:00,
2013-03-21 17:00:00,28.3,9.2,29.91,SW,214,4.0,-999.0,44,0.00,,,0.00,105,WeatherHawk,2013-03-21 21:00:00,
2013-03-21 17:05:00,28.2,8.6,29.92,WNW,296,9.0,-999.0,43,0.00,,,0.00,76,WeatherHawk,2013-03-21 21:05:00,
2013-03-21 17:10:00,28.3,9.7,29.92,West,259,1.0,-999.0,45,0.00,,,0.00,60,WeatherHawk,2013-03-21 21:10:00,
2013-03-21 17:20:00,28.1,10.0,29.91,SW,236,6.0,-999.0,46,0.00,,,0.00,124,WeatherHawk,2013-03-21 21:20:00,
2013-03-21 17:25:00,28.0,9.4,29.92,South,171,9.0,-999.0,45,0.00,,,0.00,122,WeatherHawk,2013-03-21 21:25:00,
2013-03-21 17:35:00,28.0,9.9,29.92,West,267,7.0,-999.0,46,0.00,,,0.00,89,WeatherHawk,2013-03-21 21:35:00,
2013-03-21 17:40:00,27.9,8.9,29.92,SW,232,7.0,-999.0,44,0.00,,,0.00,89,WeatherHawk,2013-03-21 21:40:00,
2013-03-21 17:45:00,28.3,10.2,29.92,West,263,3.0,-999.0,46,0.00,,,0.00,89,WeatherHawk,2013-03-21 21:45:00,
2013-03-21 17:55:00,28.1,9.0,29.92,WSW,250,3.0,-999.0,44,0.00,,,0.00,63,WeatherHawk,2013-03-21 21:55:00,
2013-03-21 18:00:00,28.0,9.4,29.92,SW,218,11.0,-999.0,45,0.00,,,0.00,50,WeatherHawk,2013-03-21 22:00:00,
2013-03-21 18:05:00,28.1,10.5,29.92,WSW,249,5.0,-999.0,47,0.00,,,0.00,83,WeatherHawk,2013-03-21 22:05:00,
2013-03-21 18:10:00,28.0,9.4,29.92,WSW,238,6.0,-999.0,45,0.00,,,0.00,55,WeatherHawk,2013-03-21 22:10:00,
2013-03-21 18:20:00,27.9,8.8,29.92,ESE,112,7.0,-999.0,44,0.00,,,0.00,45,WeatherHawk,2013-03-21 22:20:00,
2013-03-21 18:25:00,28.0,9.4,29.92,WSW,242,5.0,-999.0,45,0.00,,,0.00,42,WeatherHawk,2013-03-21 22:25:00,
2013-03-21 18:30:00,27.8,10.2,29.92,WSW,249,4.0,-999.0,47,0.00,,,0.00,42,WeatherHawk,2013-03-21 22:30:00,
2013-03-21 18:35:00,27.8,10.2,29.92,WSW,244,9.0,-999.0,47,0.00,,,0.00,43,WeatherHawk,2013-03-21 22:35:00,
2013-03-21 18:40:00,27.8,10.7,29.92,South,189,6.0,-999.0,48,0.00,,,0.00,33,WeatherHawk,2013-03-21 22:40:00,
2013-03-21 18:45:00,27.8,11.6,29.92,NNW,336,3.0,-999.0,50,0.00,,,0.00,24,WeatherHawk,2013-03-21 22:45:00,
2013-03-21 18:55:00,27.6,12.3,29.92,SSE,164,11.0,-999.0,52,0.00,,,0.00,25,WeatherHawk,2013-03-21 22:55:00,
2013-03-21 19:00:00,27.7,11.5,29.92,WNW,301,8.0,-999.0,50,0.00,,,0.00,24,WeatherHawk,2013-03-21 23:00:00,
2013-03-21 19:05:00,27.8,10.7,29.93,South,179,6.0,-999.0,48,0.00,,,0.00,21,WeatherHawk,2013-03-21 23:05:00,
2013-03-21 19:10:00,27.8,9.7,29.92,NNE,30,9.0,-999.0,46,0.00,,,0.00,20,WeatherHawk,2013-03-21 23:10:00,
2013-03-21 19:15:00,27.9,8.3,29.93,West,269,12.0,-999.0,43,0.00,,,0.00,16,WeatherHawk,2013-03-21 23:15:00,
2013-03-21 19:20:00,27.8,6.1,29.92,South,181,9.0,-999.0,39,0.00,,,0.00,9,WeatherHawk,2013-03-21 23:20:00,
2013-03-21 19:25:00,27.8,4.3,29.92,SSW,205,5.0,-999.0,36,0.00,,,0.00,9,WeatherHawk,2013-03-21 23:25:00,
2013-03-21 19:35:00,27.6,5.3,29.93,SW,214,6.0,-999.0,38,0.00,,,0.00,5,WeatherHawk,2013-03-21 23:35:00,
2013-03-21 19:40:00,27.4,5.8,29.93,WSW,252,8.0,-999.0,39,0.00,,,0.00,3,WeatherHawk,2013-03-21 23:40:00,
2013-03-21 19:45:00,27.3,5.1,29.93,SE,142,11.0,-999.0,38,0.00,,,0.00,2,WeatherHawk,2013-03-21 23:45:00,
2013-03-21 19:55:00,27.2,5.6,29.93,WSW,251,6.0,-999.0,39,0.00,,,0.00,1,WeatherHawk,2013-03-21 23:55:00,
2013-03-21 20:05:00,27.2,6.1,29.93,WNW,296,5.0,-999.0,40,0.00,,,0.00,0,WeatherHawk,2013-03-22 00:05:00,
2013-03-21 20:10:00,27.4,6.3,29.93,SSW,206,8.0,-999.0,40,0.00,,,0.00,0,WeatherHawk,2013-03-22 00:10:00,
2013-03-21 20:15:00,27.3,5.6,29.93,West,264,6.0,-999.0,39,0.00,,,0.00,0,WeatherHawk,2013-03-22 00:15:00,
2013-03-21 20:20:00,27.3,3.3,29.93,WNW,296,4.0,-999.0,35,0.00,,,0.00,0,WeatherHawk,2013-03-22 00:20:00,
2013-03-21 20:30:00,27.3,-0.7,29.94,West,276,11.0,-999.0,29,0.00,,,0.00,0,WeatherHawk,2013-03-22 00:30:00,
2013-03-21 20:35:00,27.3,-0.7,29.93,NW,315,7.0,-999.0,29,0.00,,,0.00,0,WeatherHawk,2013-03-22 00:35:00,
2013-03-21 20:40:00,27.2,-3.1,29.94,NE,35,4.0,-999.0,26,0.00,,,0.00,0,WeatherHawk,2013-03-22 00:40:00,
2013-03-21 20:45:00,27.3,-3.0,29.93,SSE,164,12.0,-999.0,26,0.00,,,0.00,0,WeatherHawk,2013-03-22 00:45:00,
2013-03-21 20:50:00,27.2,-4.7,29.94,WNW,299,10.0,-999.0,24,0.00,,,0.00,0,WeatherHawk,2013-03-22 00:50:00,
2013-03-21 20:55:00,27.2,-1.5,29.93,West,272,7.0,-999.0,28,0.00,,,0.00,0,WeatherHawk,2013-03-22 00:55:00,
2013-03-21 21:00:00,27.1,-1.7,29.94,South,184,7.0,-999.0,28,0.00,,,0.00,0,WeatherHawk,2013-03-22 01:00:00,
2013-03-21 21:10:00,27.0,-4.1,29.94,WNW,288,4.0,-999.0,25,0.00,,,0.00,0,WeatherHawk,2013-03-22 01:10:00,
2013-03-21 21:15:00,26.9,-2.6,29.94,WSW,252,2.0,-999.0,27,0.00,,,0.00,0,WeatherHawk,2013-03-22 01:15:00,
2013-03-21 21:20:00,26.8,-1.9,29.94,WNW,289,12.0,-999.0,28,0.00,,,0.00,0,WeatherHawk,2013-03-22 01:20:00,
2013-03-21 21:24:00,26.8,-5.1,29.94,WNW,290,6.0,-999.0,24,0.00,,,0.00,0,WeatherHawk,2013-03-22 01:24:00,
2013-03-21 21:29:00,26.8,-6.9,29.94,NW,320,11.0,-999.0,22,0.00,,,0.00,0,WeatherHawk,2013-03-22 01:29:00,
2013-03-21 21:34:00,26.8,-5.1,29.95,West,279,10.0,-999.0,24,0.00,,,0.00,0,WeatherHawk,2013-03-22 01:34:00,
2013-03-21 21:40:00,26.7,-4.4,29.95,NNW,339,12.0,-999.0,25,0.00,,,0.00,0,WeatherHawk,2013-03-22 01:40:00,
2013-03-21 21:50:00,26.5,-5.3,29.94,SE,141,6.0,-999.0,24,0.00,,,0.00,0,WeatherHawk,2013-03-22 01:50:00,
2013-03-21 21:59:00,26.5,-6.3,29.95,South,185,7.0,-999.0,23,0.00,,,0.00,0,WeatherHawk,2013-03-22 01:59:00,
2013-03-21 22:05:00,26.4,-4.6,29.95,West,260,7.0,-999.0,25,0.00,,,0.00,0,WeatherHawk,2013-03-22 02:05:00,
2013-03-21 22:14:00,26.2,-4.0,29.95,SSW,209,7.0,-999.0,26,0.00,,,0.00,0,WeatherHawk,2013-03-22 02:14:00,
2013-03-21 22:19:00,26.2,-1.6,29.95,WSW,241,13.0,-999.0,29,0.00,,,0.00,0,WeatherHawk,2013-03-22 02:19:00,
2013-03-21 22:25:00,26.1,-4.8,29.96,WNW,298,7.0,-999.0,25,0.00,,,0.00,0,WeatherHawk,2013-03-22 02:25:00,
2013-03-21 22:34:00,26.0,-3.3,29.95,West,277,10.0,-999.0,27,0.00,,,0.00,0,WeatherHawk,2013-03-22 02:34:00,
2013-03-21 22:39:00,26.0,-1.1,29.96,West,267,5.0,-999.0,30,0.00,,,0.00,0,WeatherHawk,2013-03-22 02:39:00,
2013-03-21 22:45:00,26.0,-2.6,29.96,WNW,301,9.0,-999.0,28,0.00,,,0.00,0,WeatherHawk,2013-03-22 02:45:00,
2013-03-21 22:55:00,25.9,-1.2,29.96,WSW,246,5.0,-999.0,30,0.00,,,0.00,0,WeatherHawk,2013-03-22 02:55:00,
2013-03-21 23:05:00,25.8,-1.3,29.97,WSW,243,9.0,-999.0,30,0.00,,,0.00,0,WeatherHawk,2013-03-22 03:05:00,
2013-03-21 23:09:00,25.7,0.0,29.96,WSW,245,12.0,-999.0,32,0.00,,,0.00,0,WeatherHawk,2013-03-22 03:09:00,
2013-03-21 23:15:00,25.7,-2.1,29.96,SW,224,12.0,-999.0,29,0.00,,,0.00,0,WeatherHawk,2013-03-22 03:15:00,
2013-03-21 23:25:00,25.6,0.5,29.97,SW,232,9.0,-999.0,33,0.00,,,0.00,0,WeatherHawk,2013-03-22 03:25:00,
2013-03-21 23:35:00,25.4,1.0,29.97,SW,224,7.0,-999.0,34,0.00,,,0.00,1,WeatherHawk,2013-03-22 03:35:00,
2013-03-21 23:40:00,25.3,2.2,29.97,WSW,253,6.0,-999.0,36,0.00,,,0.00,0,WeatherHawk,2013-03-22 03:40:00,
2013-03-21 23:45:00,25.3,2.1,29.97,West,277,4.0,-999.0,36,0.00,,,0.00,0,WeatherHawk,2013-03-22 03:45:00,
2013-03-21 23:50:00,25.4,2.2,29.96,SW,223,7.0,-999.0,36,0.00,,,0.00,0,WeatherHawk,2013-03-22 03:50:00,
2013-03-21 23:55:00,25.3,1.5,29.97,SSE,157,7.0,-999.0,35,0.00,,,0.00,0,WeatherHawk,2013-03-22 03:55:00,